createdAt,value
2019-03-15T00:01:56.236Z,6.70
2019-03-15T00:04:24.766Z,6.70
2019-03-15T00:06:53.300Z,6.70
2019-03-15T00:09:22.685Z,6.70
2019-03-15T00:11:51.247Z,6.70
2019-03-15T00:14:22.661Z,6.70
2019-03-15T00:16:54.736Z,6.70
2019-03-15T00:19:23.261Z,6.70
2019-03-15T00:21:56.400Z,6.70
2019-03-15T00:24:24.856Z,6.70
2019-03-15T00:26:53.320Z,6.70
2019-03-15T00:29:25.436Z,6.70
2019-03-15T00:31:53.898Z,6.70
2019-03-15T00:34:22.439Z,6.70
2019-03-15T00:36:55.401Z,6.70
2019-03-15T00:39:23.933Z,6.70
2019-03-15T00:41:53.297Z,6.70
2019-03-15T00:44:21.752Z,6.70
2019-03-15T00:46:55.586Z,6.70
2019-03-15T00:49:24.117Z,6.70
2019-03-15T00:51:52.577Z,6.70
2019-03-15T00:54:21.918Z,6.60
2019-03-15T00:56:50.469Z,6.60
2019-03-15T00:59:20.967Z,6.60
2019-03-15T01:01:48.652Z,6.60
2019-03-15T01:04:17.193Z,6.60
2019-03-15T01:06:48.066Z,6.60
2019-03-15T01:09:16.609Z,6.60
2019-03-15T01:11:45.698Z,6.50
2019-03-15T01:14:16.522Z,6.50
2019-03-15T01:16:47.339Z,6.50
2019-03-15T01:19:15.863Z,6.50
2019-03-15T01:21:45.879Z,6.40
2019-03-15T01:24:14.348Z,6.40
2019-03-15T01:26:42.879Z,6.30
2019-03-15T01:29:15.074Z,6.40
2019-03-15T01:31:43.608Z,6.40
2019-03-15T01:34:12.072Z,6.40
2019-03-15T01:36:43.188Z,6.40
2019-03-15T01:39:11.645Z,6.40
2019-03-15T01:41:40.105Z,6.40
2019-03-15T01:44:12.689Z,6.40
2019-03-15T01:46:41.150Z,6.50
2019-03-15T01:49:09.604Z,6.50
2019-03-15T01:51:41.071Z,6.50
2019-03-15T01:54:09.983Z,6.50
2019-03-15T01:56:38.519Z,6.60
2019-03-15T01:59:10.403Z,6.60
2019-03-15T02:01:38.872Z,6.60
2019-03-15T02:04:09.020Z,6.60
2019-03-15T02:06:37.557Z,6.60
2019-03-15T02:09:09.356Z,6.60
2019-03-15T02:11:37.751Z,6.60
2019-03-15T02:14:07.256Z,6.60
2019-03-15T02:16:35.720Z,6.70
2019-03-15T02:19:05.156Z,6.70
2019-03-15T02:21:33.689Z,6.70
2019-03-15T02:24:02.220Z,6.70
2019-03-15T02:26:33.881Z,6.70
2019-03-15T02:29:02.341Z,6.70
2019-03-15T02:31:34.937Z,6.70
2019-03-15T02:34:07.828Z,6.70
2019-03-15T02:36:36.358Z,6.70
2019-03-15T02:39:06.462Z,6.60
2019-03-15T02:41:39.430Z,6.60
2019-03-15T02:44:08.032Z,6.60
2019-03-15T02:46:36.564Z,6.60
2019-03-15T02:49:08.436Z,6.60
2019-03-15T02:51:37.126Z,6.60
2019-03-15T02:54:09.312Z,6.60
2019-03-15T02:56:37.772Z,6.60
2019-03-15T02:59:06.225Z,6.60
2019-03-15T03:01:36.930Z,6.60
2019-03-15T03:04:05.474Z,6.60
2019-03-15T03:06:34.005Z,6.60
2019-03-15T03:09:02.997Z,6.60
2019-03-15T03:11:31.532Z,6.60
2019-03-15T03:14:02.812Z,6.60
2019-03-15T03:16:32.766Z,6.60
2019-03-15T03:19:01.454Z,6.60
2019-03-15T03:21:32.171Z,6.60
2019-03-15T03:24:00.633Z,6.60
2019-03-15T03:26:29.091Z,6.60
2019-03-15T03:29:02.420Z,6.60
2019-03-15T03:31:35.054Z,6.50
2019-03-15T03:34:06.061Z,6.50
2019-03-15T03:36:34.601Z,6.50
2019-03-15T03:39:04.000Z,6.50
2019-03-15T03:41:32.950Z,6.50
2019-03-15T03:44:01.950Z,6.40
2019-03-15T03:46:30.461Z,6.40
2019-03-15T03:49:02.325Z,6.40
2019-03-15T03:51:32.823Z,6.40
2019-03-15T03:54:00.572Z,6.40
2019-03-15T03:56:29.037Z,6.40
2019-03-15T03:58:57.703Z,6.40
2019-03-15T04:01:26.166Z,6.40
2019-03-15T04:03:54.871Z,6.30
2019-03-15T04:06:26.921Z,6.40
2019-03-15T04:08:55.372Z,6.40
2019-03-15T04:11:23.829Z,6.30
2019-03-15T04:13:55.041Z,6.30
2019-03-15T04:16:23.493Z,6.30
2019-03-15T04:18:53.128Z,6.30
2019-03-15T04:21:23.456Z,6.30
2019-03-15T04:23:53.277Z,6.30
2019-03-15T04:26:21.813Z,6.30
2019-03-15T04:28:52.807Z,6.30
2019-03-15T04:31:23.025Z,6.40
2019-03-15T04:33:53.342Z,6.30
2019-03-15T04:36:21.788Z,6.30
2019-03-15T04:38:55.033Z,6.30
2019-03-15T04:41:23.493Z,6.30
2019-03-15T04:43:51.951Z,6.30
2019-03-15T04:46:21.304Z,6.30
2019-03-15T04:48:49.761Z,6.30
2019-03-15T04:51:18.890Z,6.30
2019-03-15T04:53:47.384Z,6.30
2019-03-15T04:56:15.839Z,6.40
2019-03-15T04:58:45.885Z,6.40
2019-03-15T05:01:14.412Z,6.40
2019-03-15T05:03:42.870Z,6.40
2019-03-15T05:06:14.448Z,6.40
2019-03-15T05:08:42.901Z,6.50
2019-03-15T05:11:14.405Z,6.50
2019-03-15T05:13:45.601Z,6.60
2019-03-15T05:16:14.064Z,6.60
2019-03-15T05:18:44.921Z,6.60
2019-03-15T05:21:13.392Z,6.60
2019-03-15T05:23:41.853Z,6.60
2019-03-15T05:26:16.403Z,6.60
2019-03-15T05:28:44.852Z,6.60
2019-03-15T05:31:13.301Z,6.60
2019-03-15T05:33:45.443Z,6.60
2019-03-15T05:36:15.161Z,6.60
2019-03-15T05:38:44.972Z,6.60
2019-03-15T05:41:13.423Z,6.60
2019-03-15T05:43:41.898Z,6.60
2019-03-15T05:46:12.879Z,6.60
2019-03-15T05:48:41.340Z,6.70
2019-03-15T05:51:10.987Z,6.60
2019-03-15T05:53:40.710Z,6.60
2019-03-15T05:56:12.667Z,6.60
2019-03-15T05:58:41.355Z,6.60
2019-03-15T06:01:09.929Z,6.60
2019-03-15T06:03:48.468Z,6.60
2019-03-15T06:06:10.141Z,6.60
2019-03-15T06:08:38.673Z,6.60
2019-03-15T06:11:13.554Z,6.60
2019-03-15T06:13:45.692Z,6.50
2019-03-15T06:16:14.155Z,6.50
2019-03-15T06:18:46.426Z,6.50
2019-03-15T06:21:14.882Z,6.40
2019-03-15T06:23:46.264Z,6.30
2019-03-15T06:26:14.725Z,6.20
2019-03-15T06:28:45.899Z,6.20
2019-03-15T06:31:17.855Z,6.20
2019-03-15T06:33:50.231Z,6.20
2019-03-15T06:36:23.118Z,6.20
2019-03-15T06:38:51.659Z,6.20
2019-03-15T06:41:20.187Z,6.20
2019-03-15T06:43:50.255Z,6.30
2019-03-15T06:46:21.573Z,6.30
2019-03-15T06:48:50.100Z,6.40
2019-03-15T06:51:18.561Z,6.40
2019-03-15T06:53:48.213Z,6.40
2019-03-15T06:56:16.834Z,6.50
2019-03-15T06:58:45.467Z,6.50
2019-03-15T07:01:17.276Z,6.50
2019-03-15T07:03:45.744Z,6.60
2019-03-15T07:06:14.469Z,6.60
2019-03-15T07:08:44.382Z,6.60
2019-03-15T07:11:12.847Z,6.70
2019-03-15T07:13:41.500Z,6.70
2019-03-15T07:16:11.580Z,6.70
2019-03-15T07:18:40.117Z,6.70
2019-03-15T07:21:08.582Z,6.70
2019-03-15T07:23:40.924Z,6.70
2019-03-15T07:26:10.129Z,6.70
2019-03-15T07:28:46.017Z,6.70
2019-03-15T07:31:14.565Z,6.70
2019-03-15T07:33:55.236Z,6.70
2019-03-15T07:36:23.702Z,6.70
2019-03-15T07:38:52.225Z,6.70
2019-03-15T07:41:25.219Z,6.80
2019-03-15T07:43:52.201Z,6.80
2019-03-15T07:46:20.651Z,6.90
2019-03-15T07:48:53.708Z,7.00
2019-03-15T07:51:22.179Z,7.00
2019-03-15T07:53:50.709Z,7.10
2019-03-15T07:56:20.712Z,7.10
2019-03-15T07:58:49.164Z,7.20
2019-03-15T08:01:17.704Z,7.30
2019-03-15T08:03:46.207Z,7.30
2019-03-15T08:06:14.755Z,7.40
2019-03-15T08:08:45.148Z,7.50
2019-03-15T08:11:13.921Z,7.60
2019-03-15T08:13:43.885Z,7.50
2019-03-15T08:16:12.351Z,7.60
2019-03-15T08:18:42.900Z,7.60
2019-03-15T08:21:13.174Z,7.60
2019-03-15T08:23:41.731Z,7.60
2019-03-15T08:26:16.855Z,7.70
2019-03-15T08:28:45.462Z,7.70
2019-03-15T08:31:16.382Z,7.80
2019-03-15T08:33:45.893Z,7.80
2019-03-15T08:36:20.451Z,7.90
2019-03-15T08:38:50.943Z,7.90
2019-03-15T08:41:19.396Z,7.90
2019-03-15T08:43:47.862Z,8.00
2019-03-15T08:46:18.449Z,8.00
2019-03-15T08:48:46.133Z,8.00
2019-03-15T08:51:14.589Z,8.20
2019-03-15T08:53:43.999Z,8.20
2019-03-15T08:56:14.539Z,8.30
2019-03-15T08:58:42.645Z,8.30
2019-03-15T09:01:12.127Z,8.30
2019-03-15T09:03:42.857Z,8.30
2019-03-15T09:06:12.892Z,8.30
2019-03-15T09:09:05.514Z,8.30
2019-03-15T09:11:38.713Z,8.20
2019-03-15T09:14:07.265Z,8.20
2019-03-15T09:16:36.113Z,8.20
2019-03-15T09:19:06.929Z,8.20
2019-03-15T09:21:35.468Z,8.20
2019-03-15T09:24:04.001Z,8.20
2019-03-15T09:26:35.457Z,8.20
2019-03-15T09:29:04.166Z,8.30
2019-03-15T09:31:46.995Z,8.20
2019-03-15T09:34:06.892Z,8.30
2019-03-15T09:36:49.008Z,8.40
2019-03-15T09:39:08.960Z,8.50
2019-03-15T09:41:39.748Z,8.60
2019-03-15T09:44:07.719Z,8.60
2019-03-15T09:46:38.682Z,8.70
2019-03-15T09:49:07.142Z,8.70
2019-03-15T09:51:35.680Z,8.70
2019-03-15T09:54:04.661Z,8.80
2019-03-15T09:56:33.199Z,8.90
2019-03-15T09:59:04.597Z,8.90
2019-03-15T10:01:35.087Z,9.00
2019-03-15T10:04:06.010Z,9.00
2019-03-15T10:06:39.767Z,9.00
2019-03-15T10:09:08.233Z,9.00
2019-03-15T10:11:38.781Z,9.00
2019-03-15T10:14:08.525Z,8.90
2019-03-15T10:16:37.060Z,8.90
2019-03-15T10:19:06.185Z,8.80
2019-03-15T10:21:34.644Z,8.80
2019-03-15T10:24:03.099Z,8.80
2019-03-15T10:26:36.574Z,8.80
2019-03-15T10:29:14.810Z,8.80
2019-03-15T10:31:35.280Z,8.90
2019-03-15T10:34:06.105Z,8.90
2019-03-15T10:36:34.883Z,9.10
2019-03-15T10:39:07.775Z,9.20
2019-03-15T10:41:38.292Z,9.30
2019-03-15T10:44:08.544Z,9.50
2019-03-15T10:46:38.073Z,9.60
2019-03-15T10:49:06.531Z,9.60
2019-03-15T10:51:36.349Z,9.70
2019-03-15T10:54:04.879Z,9.60
2019-03-15T10:56:36.701Z,9.70
2019-03-15T10:59:07.628Z,9.70
2019-03-15T11:01:39.392Z,9.70
2019-03-15T11:04:07.927Z,9.80
2019-03-15T11:06:37.905Z,9.80
2019-03-15T11:09:07.222Z,9.90
2019-03-15T11:11:41.272Z,9.90
2019-03-15T11:14:09.802Z,9.90
2019-03-15T11:16:38.336Z,10.00
2019-03-15T11:19:09.801Z,9.90
2019-03-15T11:21:38.337Z,9.90
2019-03-15T11:24:07.425Z,9.90
2019-03-15T11:26:35.885Z,9.90
2019-03-15T11:29:05.251Z,9.90
2019-03-15T11:31:33.715Z,10.00
2019-03-15T11:34:02.250Z,10.00
2019-03-15T11:36:32.211Z,10.10
2019-03-15T11:39:00.853Z,10.20
2019-03-15T11:41:29.316Z,10.30
2019-03-15T11:44:00.436Z,10.30
2019-03-15T11:46:28.892Z,10.30
2019-03-15T11:48:57.349Z,10.40
2019-03-15T11:51:29.472Z,10.30
2019-03-15T11:53:58.003Z,10.40
2019-03-15T11:56:28.905Z,10.50
2019-03-15T11:58:59.007Z,10.50
2019-03-15T12:01:27.463Z,10.50
2019-03-15T12:03:56.413Z,10.50
2019-03-15T12:06:24.936Z,10.40
2019-03-15T12:08:55.098Z,10.40
2019-03-15T12:11:25.436Z,10.30
2019-03-15T12:13:55.768Z,10.30
2019-03-15T12:16:23.519Z,10.20
2019-03-15T12:18:52.519Z,10.20
2019-03-15T12:21:20.975Z,10.20
2019-03-15T12:23:51.646Z,10.20
2019-03-15T12:26:24.225Z,10.20
2019-03-15T12:28:52.751Z,10.30
2019-03-15T12:31:22.934Z,10.40
2019-03-15T12:33:51.464Z,10.40
2019-03-15T12:36:19.939Z,10.50
2019-03-15T12:38:49.210Z,10.60
2019-03-15T12:41:17.658Z,10.50
2019-03-15T12:43:51.265Z,10.50
2019-03-15T12:46:19.781Z,10.60
2019-03-15T12:48:48.235Z,10.50
2019-03-15T12:51:31.330Z,10.40
2019-03-15T12:53:49.075Z,10.40
2019-03-15T12:56:17.542Z,10.30
2019-03-15T12:58:50.420Z,10.10
2019-03-15T13:01:18.951Z,10.00
2019-03-15T13:03:47.411Z,10.10
2019-03-15T13:06:19.332Z,10.10
2019-03-15T13:08:47.855Z,10.20
2019-03-15T13:11:19.781Z,10.20
2019-03-15T13:13:51.156Z,10.10
2019-03-15T13:16:28.623Z,10.10
2019-03-15T13:19:00.915Z,10.10
2019-03-15T13:21:29.422Z,10.10
2019-03-15T13:24:02.260Z,10.20
2019-03-15T13:26:33.618Z,10.30
2019-03-15T13:29:02.147Z,10.30
2019-03-15T13:31:32.728Z,10.30
2019-03-15T13:34:01.175Z,10.30
2019-03-15T13:36:29.630Z,10.40
2019-03-15T13:39:00.022Z,10.40
2019-03-15T13:41:27.702Z,10.50
2019-03-15T13:43:56.226Z,10.50
2019-03-15T13:46:27.937Z,10.60
2019-03-15T13:48:56.475Z,10.40
2019-03-15T13:51:24.936Z,10.10
2019-03-15T13:53:58.415Z,10.00
2019-03-15T13:56:26.863Z,10.00
2019-03-15T13:58:57.461Z,9.90
2019-03-15T14:01:28.875Z,9.90
2019-03-15T14:03:57.322Z,9.80
2019-03-15T14:06:27.383Z,9.70
2019-03-15T14:09:00.047Z,9.70
2019-03-15T14:11:28.494Z,9.60
2019-03-15T14:14:01.431Z,9.40
2019-03-15T14:16:31.996Z,9.30
2019-03-15T14:19:01.178Z,9.20
2019-03-15T14:21:30.908Z,9.10
2019-03-15T14:24:01.415Z,9.00
2019-03-15T14:26:29.092Z,9.00
2019-03-15T14:29:03.714Z,9.00
2019-03-15T14:31:32.163Z,8.90
2019-03-15T14:34:00.607Z,8.80
2019-03-15T14:36:31.514Z,8.60
2019-03-15T14:39:00.121Z,8.50
2019-03-15T14:41:28.822Z,8.40
2019-03-15T14:43:59.745Z,8.30
2019-03-15T14:46:28.265Z,8.20
2019-03-15T14:48:56.715Z,8.10
2019-03-15T14:51:28.884Z,8.10
2019-03-15T14:53:57.407Z,8.10
2019-03-15T14:56:25.855Z,8.10
2019-03-15T14:58:58.044Z,8.00
2019-03-15T15:01:26.563Z,8.00
2019-03-15T15:03:57.240Z,7.90
2019-03-15T15:06:27.568Z,7.90
2019-03-15T15:08:56.103Z,7.90
2019-03-15T15:11:25.994Z,7.90
2019-03-15T15:13:54.768Z,7.90
2019-03-15T15:16:23.555Z,7.90
2019-03-15T15:18:55.306Z,8.00
2019-03-15T15:21:25.754Z,7.90
2019-03-15T15:23:53.459Z,7.90
2019-03-15T15:26:26.091Z,7.90
2019-03-15T15:28:54.547Z,7.90
2019-03-15T15:31:22.990Z,7.90
2019-03-15T15:33:54.471Z,7.90
2019-03-15T15:36:22.931Z,7.90
2019-03-15T15:38:56.605Z,7.90
2019-03-15T15:41:25.047Z,7.90
2019-03-15T15:43:53.507Z,7.80
2019-03-15T15:46:26.354Z,7.90
2019-03-15T15:48:54.799Z,8.00
2019-03-15T15:51:23.247Z,7.90
2019-03-15T15:53:54.367Z,8.00
2019-03-15T15:56:22.815Z,8.10
2019-03-15T15:58:51.262Z,8.10
2019-03-15T16:01:20.339Z,8.10
2019-03-15T16:03:48.783Z,8.10
2019-03-15T16:06:19.866Z,8.10
2019-03-15T16:08:48.316Z,8.20
2019-03-15T16:11:16.758Z,8.10
2019-03-15T16:13:46.982Z,8.10
2019-03-15T16:16:16.146Z,8.10
2019-03-15T16:18:46.399Z,8.20
2019-03-15T16:21:17.953Z,8.20
2019-03-15T16:23:46.409Z,8.20
2019-03-15T16:26:16.191Z,8.30
2019-03-15T16:28:47.299Z,8.30
2019-03-15T16:31:18.233Z,8.30
2019-03-15T16:33:46.758Z,8.40
2019-03-15T16:36:16.318Z,8.40
2019-03-15T16:38:47.470Z,8.40
2019-03-15T16:41:15.919Z,8.40
2019-03-15T16:43:44.383Z,8.40
2019-03-15T16:46:13.440Z,8.40
2019-03-15T16:48:41.886Z,8.40
2019-03-15T16:51:19.451Z,8.40
2019-03-15T16:53:41.347Z,8.40
2019-03-15T16:56:09.802Z,8.40
2019-03-15T16:58:45.683Z,8.40
2019-03-15T17:01:12.071Z,8.40
2019-03-15T17:03:43.835Z,8.40
2019-03-15T17:06:12.284Z,8.40
2019-03-15T17:08:40.841Z,8.40
2019-03-15T17:11:11.425Z,8.50
2019-03-15T17:13:39.101Z,8.40
2019-03-15T17:16:11.995Z,8.50
2019-03-15T17:18:40.959Z,8.40
2019-03-15T17:21:09.406Z,8.60
2019-03-15T17:23:40.781Z,8.60
2019-03-15T17:26:10.284Z,8.70
2019-03-15T17:28:40.713Z,8.70
2019-03-15T17:31:10.477Z,8.70
2019-03-15T17:33:39.051Z,8.70
2019-03-15T17:36:08.222Z,8.60
2019-03-15T17:38:36.670Z,8.60
2019-03-15T17:41:05.134Z,8.60
2019-03-15T17:43:34.487Z,8.60
2019-03-15T17:46:05.529Z,8.60
2019-03-15T17:48:33.976Z,8.60
2019-03-15T17:51:04.858Z,8.70
2019-03-15T17:53:33.311Z,8.70
2019-03-15T17:56:01.757Z,8.80
2019-03-15T17:58:32.870Z,8.90
2019-03-15T18:01:01.655Z,8.90
2019-03-15T18:03:30.172Z,8.90
2019-03-15T18:06:00.167Z,8.90
2019-03-15T18:08:28.695Z,8.90
2019-03-15T18:10:59.495Z,9.00
2019-03-15T18:13:28.191Z,9.00
2019-03-15T18:15:56.719Z,9.10
2019-03-15T18:18:27.006Z,9.10
2019-03-15T18:20:58.655Z,9.10
2019-03-15T18:23:31.743Z,9.10
2019-03-15T18:26:00.191Z,9.10
2019-03-15T18:28:34.953Z,9.10
2019-03-15T18:31:03.411Z,9.20
2019-03-15T18:33:34.875Z,9.10
2019-03-15T18:36:03.446Z,9.10
2019-03-15T18:38:34.318Z,9.00
2019-03-15T18:41:02.796Z,9.00
2019-03-15T18:43:31.238Z,8.90
2019-03-15T18:46:03.358Z,9.00
2019-03-15T18:48:31.807Z,9.00
2019-03-15T18:51:03.607Z,9.00
2019-03-15T18:53:34.355Z,9.00
2019-03-15T18:56:02.879Z,9.00
2019-03-15T18:58:34.290Z,8.90
2019-03-15T19:01:02.747Z,8.90
2019-03-15T19:03:35.651Z,8.90
2019-03-15T19:06:04.105Z,8.90
2019-03-15T19:08:32.623Z,8.90
2019-03-15T19:11:05.924Z,8.90
2019-03-15T19:13:34.375Z,9.00
2019-03-15T19:16:02.823Z,9.10
2019-03-15T19:18:34.270Z,9.10
2019-03-15T19:21:02.728Z,9.10
2019-03-15T19:23:31.211Z,9.00
2019-03-15T19:26:07.483Z,9.10
2019-03-15T19:28:40.466Z,9.10
2019-03-15T19:31:08.919Z,9.00
2019-03-15T19:33:41.858Z,9.10
2019-03-15T19:36:10.381Z,9.10
2019-03-15T19:38:40.538Z,9.00
2019-03-15T19:41:12.362Z,9.10
2019-03-15T19:43:40.883Z,9.10
2019-03-15T19:46:11.723Z,9.10
2019-03-15T19:48:42.065Z,9.00
2019-03-15T19:51:10.347Z,8.90
2019-03-15T19:53:41.775Z,8.80
2019-03-15T19:56:10.294Z,8.80
2019-03-15T19:58:40.302Z,8.80
2019-03-15T20:01:11.554Z,8.80
2019-03-15T20:03:44.190Z,8.70
2019-03-15T20:06:12.195Z,8.60
2019-03-15T20:08:39.885Z,8.60
2019-03-15T20:11:10.815Z,8.60
2019-03-15T20:13:41.230Z,8.60
2019-03-15T20:16:09.683Z,8.60
2019-03-15T20:18:41.583Z,8.60
2019-03-15T20:21:10.040Z,8.50
2019-03-15T20:23:38.487Z,8.50
2019-03-15T20:26:11.758Z,8.40
2019-03-15T20:28:41.607Z,8.40
2019-03-15T20:31:10.867Z,8.50
2019-03-15T20:33:40.682Z,8.40
2019-03-15T20:36:09.140Z,8.40
2019-03-15T20:38:41.848Z,8.30
2019-03-15T20:41:13.614Z,8.30
2019-03-15T20:43:42.143Z,8.30
2019-03-15T20:46:12.021Z,8.30
2019-03-15T20:48:41.626Z,8.40
2019-03-15T20:51:11.331Z,8.30
2019-03-15T20:53:39.782Z,8.30
2019-03-15T20:56:08.236Z,8.20
2019-03-15T20:58:38.233Z,8.20
2019-03-15T21:01:06.746Z,8.20
2019-03-15T21:03:35.195Z,8.20
2019-03-15T21:06:05.734Z,8.20
2019-03-15T21:08:36.970Z,8.20
2019-03-15T21:11:08.323Z,8.20
2019-03-15T21:13:38.552Z,8.20
2019-03-15T21:16:09.604Z,8.10
2019-03-15T21:18:39.512Z,8.10
2019-03-15T21:21:11.119Z,8.10
2019-03-15T21:23:40.176Z,8.00
2019-03-15T21:26:08.703Z,8.00
2019-03-15T21:28:38.989Z,8.00
2019-03-15T21:31:09.615Z,8.00
2019-03-15T21:33:38.058Z,7.90
2019-03-15T21:36:10.556Z,8.00
2019-03-15T21:38:48.271Z,7.90
2019-03-15T21:41:12.447Z,7.90
2019-03-15T21:43:42.987Z,7.90
2019-03-15T21:46:13.853Z,7.80
2019-03-15T21:48:43.240Z,7.90
2019-03-15T21:51:11.695Z,7.80
2019-03-15T21:53:41.025Z,7.80
2019-03-15T21:56:09.971Z,7.80
2019-03-15T21:58:38.495Z,7.80
2019-03-15T22:01:08.743Z,7.80
2019-03-15T22:03:37.225Z,7.70
2019-03-15T22:06:10.818Z,7.70
2019-03-15T22:08:39.268Z,7.70
2019-03-15T22:11:20.537Z,7.70
2019-03-15T22:13:39.710Z,7.60
2019-03-15T22:16:08.351Z,7.70
2019-03-15T22:18:38.371Z,7.70
2019-03-15T22:21:08.075Z,7.60
2019-03-15T22:23:39.741Z,7.60
2019-03-15T22:26:08.191Z,7.50
2019-03-15T22:28:41.918Z,7.60
2019-03-15T22:31:16.540Z,7.60
2019-03-15T22:33:42.172Z,7.50
2019-03-15T22:36:10.631Z,7.50
2019-03-15T22:38:39.080Z,7.50
2019-03-15T22:41:10.904Z,7.50
2019-03-15T22:43:39.354Z,7.50
2019-03-15T22:46:10.119Z,7.60
2019-03-15T22:48:39.041Z,7.50
2019-03-15T22:51:07.551Z,7.50
2019-03-15T22:53:39.158Z,7.50
2019-03-15T22:56:07.607Z,7.50
2019-03-15T22:58:37.974Z,7.40
2019-03-15T23:01:07.260Z,7.50
2019-03-15T23:03:36.220Z,7.50
2019-03-15T23:06:06.290Z,7.40
2019-03-15T23:08:34.745Z,7.40
2019-03-15T23:11:04.676Z,7.40
2019-03-15T23:13:36.123Z,7.40
2019-03-15T23:16:04.647Z,7.40
2019-03-15T23:18:34.463Z,7.40
2019-03-15T23:21:03.982Z,7.40
2019-03-15T23:23:32.443Z,7.30
2019-03-15T23:26:02.372Z,7.30
2019-03-15T23:28:30.831Z,7.30
2019-03-15T23:31:04.043Z,7.30
2019-03-15T23:33:32.525Z,7.30
2019-03-15T23:36:02.860Z,7.20
2019-03-15T23:38:34.626Z,7.30
2019-03-15T23:41:03.158Z,7.20
2019-03-15T23:43:33.019Z,7.20
2019-03-15T23:46:01.502Z,7.30
2019-03-15T23:48:30.603Z,7.20
2019-03-15T23:50:59.053Z,7.30
2019-03-15T23:53:29.514Z,7.20
2019-03-15T23:55:57.978Z,7.20
2019-03-15T23:58:30.782Z,7.20
